createdAt,value
2023-02-16T00:02:48.514Z,33.67
2023-02-16T00:06:52.331Z,30.67
2023-02-16T00:11:12.614Z,28.13
2023-02-16T00:15:19.464Z,27.40
2023-02-16T00:19:24.037Z,28.13
2023-02-16T00:23:26.725Z,26.50
2023-02-16T00:27:29.419Z,30.73
2023-02-16T00:31:34.009Z,28.17
2023-02-16T00:35:36.747Z,30.77
2023-02-16T00:39:40.575Z,32.50
2023-02-16T00:43:43.230Z,32.47
2023-02-16T00:47:48.841Z,31.90
2023-02-16T00:51:51.746Z,29.40
2023-02-16T00:55:54.971Z,30.47
2023-02-16T01:00:00.344Z,33.97
2023-02-16T01:04:07.883Z,31.83
2023-02-16T01:08:29.221Z,33.57
2023-02-16T01:12:32.218Z,33.47
2023-02-16T01:16:39.636Z,37.07
2023-02-16T01:20:43.976Z,31.70
2023-02-16T01:24:46.680Z,36.13
2023-02-16T01:28:49.822Z,37.47
2023-02-16T01:32:52.568Z,34.90
2023-02-16T01:36:56.868Z,38.03
2023-02-16T01:41:06.617Z,38.43
2023-02-16T01:45:12.598Z,34.43
2023-02-16T01:49:16.656Z,33.03
2023-02-16T01:53:24.587Z,37.43
2023-02-16T01:57:32.362Z,35.57
2023-02-16T02:01:42.127Z,32.80
2023-02-16T02:05:47.618Z,36.13
2023-02-16T02:09:58.995Z,34.67
2023-02-16T02:14:04.708Z,32.47
2023-02-16T02:18:07.387Z,34.07
2023-02-16T02:22:43.902Z,31.93
2023-02-16T02:27:04.263Z,33.30
2023-02-16T02:31:11.168Z,36.37
2023-02-16T02:35:26.787Z,35.67
2023-02-16T02:39:36.026Z,32.87
2023-02-16T02:43:44.399Z,35.70
2023-02-16T02:47:47.909Z,38.97
2023-02-16T02:51:51.228Z,34.60
2023-02-16T02:56:11.536Z,35.47
2023-02-16T03:00:37.133Z,34.27
2023-02-16T03:04:40.278Z,34.97
2023-02-16T03:08:44.850Z,33.27
2023-02-16T03:12:46.542Z,33.97
2023-02-16T03:17:10.613Z,38.13
2023-02-16T03:21:32.419Z,36.20
2023-02-16T03:25:54.692Z,36.70
2023-02-16T03:29:58.332Z,33.13
2023-02-16T03:34:02.972Z,34.93
2023-02-16T03:38:06.181Z,33.47
2023-02-16T03:42:08.928Z,32.63
2023-02-16T03:46:11.792Z,32.77
2023-02-16T03:50:16.185Z,32.00
2023-02-16T03:54:18.891Z,30.23
2023-02-16T03:58:22.925Z,32.80
2023-02-16T04:02:26.407Z,33.53
2023-02-16T04:06:30.728Z,32.17
2023-02-16T04:10:33.646Z,34.73
2023-02-16T04:14:36.358Z,35.00
2023-02-16T04:18:39.033Z,34.10
2023-02-16T04:22:43.461Z,33.67
2023-02-16T04:26:46.500Z,32.67
2023-02-16T04:30:49.214Z,33.40
2023-02-16T04:34:51.943Z,31.80
2023-02-16T04:38:55.910Z,34.07
2023-02-16T04:42:58.764Z,34.70
2023-02-16T04:47:01.694Z,33.03
2023-02-16T04:51:05.635Z,33.43
2023-02-16T04:55:10.736Z,30.63
2023-02-16T04:59:13.805Z,35.20
2023-02-16T05:03:16.752Z,30.30
2023-02-16T05:07:19.683Z,31.80
2023-02-16T05:11:41.332Z,33.47
2023-02-16T05:15:45.101Z,30.67
2023-02-16T05:19:49.093Z,28.07
2023-02-16T05:23:51.780Z,29.07
2023-02-16T05:27:56.069Z,30.37
2023-02-16T05:31:59.401Z,34.63
2023-02-16T05:36:02.042Z,33.83
2023-02-16T05:40:05.033Z,37.97
2023-02-16T05:44:10.637Z,38.23
2023-02-16T05:48:13.290Z,30.10
2023-02-16T05:52:18.966Z,31.83
2023-02-16T05:56:22.588Z,33.10
2023-02-16T06:00:26.962Z,41.53
2023-02-16T06:04:29.887Z,39.03
2023-02-16T06:08:33.277Z,29.77
2023-02-16T06:12:36.022Z,36.33
2023-02-16T06:16:41.362Z,29.23
2023-02-16T06:20:44.178Z,45.30
2023-02-16T06:24:47.124Z,31.50
2023-02-16T06:28:49.790Z,60.30
2023-02-16T06:32:54.097Z,40.33
2023-02-16T06:36:56.988Z,28.37
2023-02-16T06:40:59.695Z,35.50
2023-02-16T06:45:02.402Z,39.87
2023-02-16T06:49:12.957Z,28.23
2023-02-16T06:53:16.035Z,31.07
2023-02-16T06:57:18.740Z,31.87
2023-02-16T07:01:23.401Z,35.87
2023-02-16T07:05:28.049Z,38.00
2023-02-16T07:09:30.790Z,46.73
2023-02-16T07:13:36.407Z,32.60
2023-02-16T07:17:39.249Z,30.80
2023-02-16T07:21:43.615Z,31.63
2023-02-16T07:25:46.306Z,32.33
2023-02-16T07:29:49.526Z,29.63
2023-02-16T07:33:52.239Z,31.77
2023-02-16T07:37:56.305Z,28.83
2023-02-16T07:41:59.018Z,31.13
2023-02-16T07:46:01.875Z,31.37
2023-02-16T07:50:05.090Z,28.63
2023-02-16T07:54:09.154Z,29.23
2023-02-16T07:58:12.360Z,28.83
2023-02-16T08:02:18.165Z,27.70
2023-02-16T08:06:21.506Z,29.10
2023-02-16T08:10:29.958Z,25.43
2023-02-16T08:14:35.071Z,24.37
2023-02-16T08:18:38.164Z,23.97
2023-02-16T08:22:40.857Z,22.57
2023-02-16T08:26:49.776Z,21.87
2023-02-16T08:30:53.795Z,22.63
2023-02-16T08:34:57.315Z,18.33
2023-02-16T08:39:00.877Z,19.57
2023-02-16T08:43:05.093Z,19.47
2023-02-16T08:47:09.468Z,17.47
2023-02-16T08:51:15.854Z,19.87
2023-02-16T08:55:18.596Z,18.37
2023-02-16T08:59:23.467Z,18.10
2023-02-16T09:03:26.434Z,17.70
2023-02-16T09:07:29.350Z,17.13
2023-02-16T09:11:32.125Z,16.33
2023-02-16T09:15:38.479Z,16.30
2023-02-16T09:19:43.439Z,15.37
2023-02-16T09:23:48.354Z,16.53
2023-02-16T09:27:51.083Z,16.03
2023-02-16T09:31:55.702Z,15.97
2023-02-16T09:35:58.343Z,16.87
2023-02-16T09:40:05.135Z,16.50
2023-02-16T09:44:13.495Z,12.43
2023-02-16T09:48:23.876Z,15.80
2023-02-16T09:52:31.926Z,16.67
2023-02-16T09:56:37.776Z,15.93
2023-02-16T10:00:46.290Z,17.27
2023-02-16T10:05:00.327Z,16.77
2023-02-16T10:09:07.414Z,17.65
2023-02-16T10:13:18.909Z,16.07
2023-02-16T10:17:28.343Z,17.65
2023-02-16T10:21:33.926Z,15.27
2023-02-16T10:25:42.187Z,15.73
2023-02-16T10:29:45.191Z,16.43
2023-02-16T10:33:56.808Z,15.27
2023-02-16T10:38:06.177Z,16.60
2023-02-16T10:42:18.233Z,17.33
2023-02-16T10:46:23.739Z,17.07
2023-02-16T10:50:29.817Z,16.47
2023-02-16T10:54:35.080Z,16.00
2023-02-16T10:58:40.398Z,15.60
2023-02-16T11:02:45.286Z,18.13
2023-02-16T11:07:03.189Z,15.73
2023-02-16T11:11:11.442Z,15.20
2023-02-16T11:15:24.962Z,15.63
2023-02-16T11:19:28.474Z,14.60
2023-02-16T11:23:32.465Z,16.47
2023-02-16T11:27:36.767Z,15.07
2023-02-16T11:31:40.929Z,16.17
2023-02-16T11:35:45.657Z,15.37
2023-02-16T11:39:50.926Z,16.53
2023-02-16T11:43:58.760Z,15.60
2023-02-16T11:48:03.178Z,15.83
2023-02-16T11:52:25.477Z,15.97
2023-02-16T11:56:29.881Z,16.40
2023-02-16T12:00:34.601Z,14.73
2023-02-16T12:04:52.592Z,14.93
2023-02-16T12:09:05.031Z,18.97
2023-02-16T12:13:14.978Z,15.20
2023-02-16T12:17:28.859Z,15.63
2023-02-16T12:21:37.821Z,15.50
2023-02-16T12:25:45.257Z,14.80
2023-02-16T12:29:55.588Z,15.07
2023-02-16T12:34:09.337Z,15.33
2023-02-16T12:38:22.125Z,14.97
2023-02-16T12:42:37.263Z,14.17
2023-02-16T12:46:43.298Z,13.87
2023-02-16T12:50:48.231Z,15.97
2023-02-16T12:54:53.441Z,13.83
2023-02-16T12:59:06.754Z,15.90
2023-02-16T13:03:22.057Z,14.33
2023-02-16T13:07:30.904Z,15.37
2023-02-16T13:11:36.985Z,15.93
2023-02-16T13:15:41.749Z,13.90
2023-02-16T13:19:45.390Z,15.87
2023-02-16T13:24:01.400Z,13.63
2023-02-16T13:28:10.614Z,14.50
2023-02-16T13:32:26.041Z,15.60
2023-02-16T13:36:41.661Z,14.13
2023-02-16T13:41:06.561Z,14.10
2023-02-16T13:45:15.460Z,15.83
2023-02-16T13:49:33.137Z,13.60
2023-02-16T13:53:38.762Z,15.73
2023-02-16T13:58:04.368Z,15.67
2023-02-16T14:02:12.715Z,13.97
2023-02-16T14:06:37.111Z,14.43
2023-02-16T14:10:59.226Z,12.93
2023-02-16T14:15:04.394Z,12.47
2023-02-16T14:19:19.670Z,10.53
2023-02-16T14:23:29.189Z,11.53
2023-02-16T14:27:47.205Z,10.73
2023-02-16T14:31:59.672Z,12.63
2023-02-16T14:36:09.289Z,12.60
2023-02-16T14:40:18.870Z,10.97
2023-02-16T14:44:38.754Z,10.67
2023-02-16T14:49:28.044Z,12.20
2023-02-16T14:53:55.455Z,12.83
2023-02-16T14:58:01.256Z,10.90
2023-02-16T15:02:29.369Z,9.37
2023-02-16T15:06:35.476Z,10.33
2023-02-16T15:10:40.957Z,11.10
2023-02-16T15:14:45.769Z,9.93
2023-02-16T15:18:50.413Z,7.47
2023-02-16T15:22:54.674Z,7.20
2023-02-16T15:27:01.613Z,8.00
2023-02-16T15:31:07.578Z,9.00
2023-02-16T15:35:12.558Z,7.97
2023-02-16T15:39:18.497Z,7.13
2023-02-16T15:43:30.778Z,11.83
2023-02-16T15:47:33.914Z,7.50
2023-02-16T15:51:38.276Z,10.63
2023-02-16T15:55:45.826Z,8.27
2023-02-16T15:59:51.622Z,8.57
2023-02-16T16:03:54.942Z,8.47
2023-02-16T16:07:58.427Z,11.17
2023-02-16T16:12:02.905Z,13.27
2023-02-16T16:16:09.870Z,10.83
2023-02-16T16:20:27.210Z,12.60
2023-02-16T16:24:35.204Z,12.48
2023-02-16T16:28:41.124Z,9.13
2023-02-16T16:32:45.772Z,7.50
2023-02-16T16:36:54.892Z,12.07
2023-02-16T16:40:59.514Z,10.60
2023-02-16T16:45:07.041Z,11.23
2023-02-16T16:49:14.608Z,11.23
2023-02-16T16:53:53.800Z,10.33
2023-02-16T16:57:58.063Z,16.47
2023-02-16T17:02:00.795Z,10.67
2023-02-16T17:06:06.666Z,17.03
2023-02-16T17:10:10.396Z,15.57
2023-02-16T17:14:17.291Z,18.73
2023-02-16T17:18:21.293Z,17.80
2023-02-16T17:22:25.328Z,25.50
2023-02-16T17:26:28.001Z,19.97
2023-02-16T17:30:30.869Z,20.00
2023-02-16T17:34:33.612Z,21.43
2023-02-16T17:38:42.961Z,20.03
2023-02-16T17:42:46.033Z,27.83
2023-02-16T17:46:49.851Z,27.77
2023-02-16T17:50:53.255Z,27.10
2023-02-16T17:54:57.556Z,21.33
2023-02-16T17:59:00.294Z,20.90
2023-02-16T18:03:04.456Z,19.63
2023-02-16T18:07:07.207Z,20.23
2023-02-16T18:11:11.749Z,33.27
2023-02-16T18:15:14.574Z,23.17
2023-02-16T18:19:17.257Z,22.43
2023-02-16T18:23:20.304Z,17.17
2023-02-16T18:27:27.944Z,13.83
2023-02-16T18:31:31.966Z,13.77
2023-02-16T18:35:34.715Z,17.50
2023-02-16T18:39:37.527Z,18.03
2023-02-16T18:43:41.568Z,17.77
2023-02-16T18:47:45.313Z,17.63
2023-02-16T18:51:48.014Z,18.87
2023-02-16T18:55:52.905Z,16.00
2023-02-16T18:59:59.018Z,16.90
2023-02-16T19:04:02.842Z,20.47
2023-02-16T19:08:06.677Z,24.43
2023-02-16T19:12:09.494Z,34.17
2023-02-16T19:16:14.132Z,33.33
2023-02-16T19:20:18.529Z,29.50
2023-02-16T19:24:21.273Z,33.37
2023-02-16T19:28:23.989Z,38.53
2023-02-16T19:32:28.063Z,32.83
2023-02-16T19:36:32.083Z,32.17
2023-02-16T19:40:34.778Z,24.70
2023-02-16T19:44:37.728Z,24.43
2023-02-16T19:48:42.132Z,22.47
2023-02-16T19:52:44.816Z,17.93
2023-02-16T19:56:47.514Z,18.23
2023-02-16T20:00:50.295Z,20.37
2023-02-16T20:04:54.989Z,19.23
2023-02-16T20:09:01.023Z,21.93
2023-02-16T20:13:04.144Z,21.77
2023-02-16T20:17:06.902Z,21.80
2023-02-16T20:21:13.669Z,22.23
2023-02-16T20:25:16.698Z,25.20
2023-02-16T20:29:22.395Z,22.43
2023-02-16T20:33:25.166Z,19.87
2023-02-16T20:37:30.224Z,19.80
2023-02-16T20:41:33.085Z,20.50
2023-02-16T20:45:41.216Z,18.80
2023-02-16T20:49:43.990Z,20.30
2023-02-16T20:53:48.484Z,18.17
2023-02-16T20:57:53.657Z,15.87
2023-02-16T21:01:56.407Z,18.80
2023-02-16T21:05:59.100Z,14.63
2023-02-16T21:10:03.175Z,14.17
2023-02-16T21:14:06.119Z,14.67
2023-02-16T21:18:10.401Z,18.93
2023-02-16T21:22:13.118Z,14.30
2023-02-16T21:26:18.427Z,15.80
2023-02-16T21:30:21.541Z,18.30
2023-02-16T21:34:24.251Z,20.37
2023-02-16T21:38:27.013Z,14.60
2023-02-16T21:42:31.577Z,14.37
2023-02-16T21:46:35.942Z,13.57
2023-02-16T21:50:40.877Z,13.97
2023-02-16T21:55:01.059Z,10.47
2023-02-16T21:59:06.974Z,10.60
2023-02-16T22:03:11.152Z,12.77
2023-02-16T22:07:13.831Z,11.03
2023-02-16T22:11:16.542Z,10.50
2023-02-16T22:15:21.170Z,13.53
2023-02-16T22:19:23.949Z,12.20
2023-02-16T22:23:26.993Z,13.33
2023-02-16T22:27:29.657Z,14.93
2023-02-16T22:31:33.725Z,13.77
2023-02-16T22:35:36.484Z,16.73
2023-02-16T22:39:39.137Z,16.53
2023-02-16T22:43:42.292Z,15.00
2023-02-16T22:47:46.319Z,17.60
2023-02-16T22:51:49.081Z,17.57
2023-02-16T22:55:51.998Z,18.70
2023-02-16T22:59:54.660Z,21.43
2023-02-16T23:04:01.542Z,20.60
2023-02-16T23:08:04.224Z,16.73
2023-02-16T23:12:07.349Z,17.17
2023-02-16T23:16:13.034Z,17.73
2023-02-16T23:20:18.651Z,29.77
2023-02-16T23:24:22.924Z,18.93
2023-02-16T23:28:25.590Z,17.23
2023-02-16T23:32:28.491Z,18.37
2023-02-16T23:36:33.259Z,17.40
2023-02-16T23:40:35.941Z,21.63
2023-02-16T23:44:38.572Z,18.97
2023-02-16T23:48:41.197Z,18.10
2023-02-16T23:52:45.300Z,16.67
2023-02-16T23:56:48.024Z,13.67
